sensor_id;sensor_type;location;lat;lon;timestamp;temperature;humidity
78461;SHT31;67755;51.986;5.696;2023-06-14T00:01:16;24.0;32.9
78461;SHT31;67755;51.986;5.696;2023-06-14T00:03:47;24.0;33.4
78461;SHT31;67755;51.986;5.696;2023-06-14T00:06:17;24.0;33.8
78461;SHT31;67755;51.986;5.696;2023-06-14T00:08:46;24.0;34.0
78461;SHT31;67755;51.986;5.696;2023-06-14T00:11:16;24.0;33.8
78461;SHT31;67755;51.986;5.696;2023-06-14T00:13:45;23.9;33.7
78461;SHT31;67755;51.986;5.696;2023-06-14T00:16:15;23.9;33.7
78461;SHT31;67755;51.986;5.696;2023-06-14T00:18:46;23.9;33.4
78461;SHT31;67755;51.986;5.696;2023-06-14T00:21:16;23.8;34.5
78461;SHT31;67755;51.986;5.696;2023-06-14T00:23:46;23.8;34.3
78461;SHT31;67755;51.986;5.696;2023-06-14T00:26:16;23.8;33.7
78461;SHT31;67755;51.986;5.696;2023-06-14T00:28:45;23.8;34.2
78461;SHT31;67755;51.986;5.696;2023-06-14T00:31:15;23.7;34.4
78461;SHT31;67755;51.986;5.696;2023-06-14T00:33:45;23.7;33.3
78461;SHT31;67755;51.986;5.696;2023-06-14T00:36:14;23.7;33.8
78461;SHT31;67755;51.986;5.696;2023-06-14T00:38:44;23.7;34.3
78461;SHT31;67755;51.986;5.696;2023-06-14T00:41:13;23.7;34.0
78461;SHT31;67755;51.986;5.696;2023-06-14T00:43:43;23.6;34.5
78461;SHT31;67755;51.986;5.696;2023-06-14T00:46:12;23.6;34.3
78461;SHT31;67755;51.986;5.696;2023-06-14T00:48:42;23.6;34.2
78461;SHT31;67755;51.986;5.696;2023-06-14T00:51:12;23.6;34.2
78461;SHT31;67755;51.986;5.696;2023-06-14T00:53:42;23.6;34.0
78461;SHT31;67755;51.986;5.696;2023-06-14T00:56:14;23.6;34.5
78461;SHT31;67755;51.986;5.696;2023-06-14T00:58:44;23.5;34.5
78461;SHT31;67755;51.986;5.696;2023-06-14T01:01:14;23.5;33.9
78461;SHT31;67755;51.986;5.696;2023-06-14T01:03:43;23.5;34.3
78461;SHT31;67755;51.986;5.696;2023-06-14T01:06:23;23.5;34.8
78461;SHT31;67755;51.986;5.696;2023-06-14T01:09:05;23.5;35.3
78461;SHT31;67755;51.986;5.696;2023-06-14T01:11:43;23.4;34.7
78461;SHT31;67755;51.986;5.696;2023-06-14T01:14:16;23.4;34.7
78461;SHT31;67755;51.986;5.696;2023-06-14T01:16:47;23.4;34.8
78461;SHT31;67755;51.986;5.696;2023-06-14T01:19:24;23.4;35.1
78461;SHT31;67755;51.986;5.696;2023-06-14T01:21:55;23.3;35.1
78461;SHT31;67755;51.986;5.696;2023-06-14T01:24:25;23.3;35.6
78461;SHT31;67755;51.986;5.696;2023-06-14T01:27:00;23.3;35.0
78461;SHT31;67755;51.986;5.696;2023-06-14T01:29:31;23.3;35.0
78461;SHT31;67755;51.986;5.696;2023-06-14T01:32:04;23.2;35.5
78461;SHT31;67755;51.986;5.696;2023-06-14T01:34:34;23.2;35.3
78461;SHT31;67755;51.986;5.696;2023-06-14T01:37:06;23.2;34.7
78461;SHT31;67755;51.986;5.696;2023-06-14T01:39:36;23.2;35.6
78461;SHT31;67755;51.986;5.696;2023-06-14T01:42:07;23.1;35.8
78461;SHT31;67755;51.986;5.696;2023-06-14T01:44:39;23.1;35.8
78461;SHT31;67755;51.986;5.696;2023-06-14T01:47:10;23.1;36.2
78461;SHT31;67755;51.986;5.696;2023-06-14T01:49:41;23.1;35.8
78461;SHT31;67755;51.986;5.696;2023-06-14T01:52:11;23.1;36.2
78461;SHT31;67755;51.986;5.696;2023-06-14T01:54:42;23.0;36.0
78461;SHT31;67755;51.986;5.696;2023-06-14T01:57:12;23.0;35.7
78461;SHT31;67755;51.986;5.696;2023-06-14T01:59:42;23.0;36.0
78461;SHT31;67755;51.986;5.696;2023-06-14T02:02:15;23.0;35.8
78461;SHT31;67755;51.986;5.696;2023-06-14T02:04:45;22.9;35.9
78461;SHT31;67755;51.986;5.696;2023-06-14T02:07:15;22.9;36.3
78461;SHT31;67755;51.986;5.696;2023-06-14T02:09:44;22.9;35.9
78461;SHT31;67755;51.986;5.696;2023-06-14T02:12:16;22.9;36.0
78461;SHT31;67755;51.986;5.696;2023-06-14T02:14:46;22.8;36.0
78461;SHT31;67755;51.986;5.696;2023-06-14T02:17:15;22.8;36.6
78461;SHT31;67755;51.986;5.696;2023-06-14T02:19:45;22.8;36.4
78461;SHT31;67755;51.986;5.696;2023-06-14T02:22:15;22.7;36.8
78461;SHT31;67755;51.986;5.696;2023-06-14T02:24:45;22.7;36.4
78461;SHT31;67755;51.986;5.696;2023-06-14T02:27:15;22.7;36.4
78461;SHT31;67755;51.986;5.696;2023-06-14T02:29:44;22.7;36.4
78461;SHT31;67755;51.986;5.696;2023-06-14T02:32:14;22.6;36.7
78461;SHT31;67755;51.986;5.696;2023-06-14T02:34:43;22.6;36.6
78461;SHT31;67755;51.986;5.696;2023-06-14T02:37:17;22.6;36.5
78461;SHT31;67755;51.986;5.696;2023-06-14T02:39:46;22.5;36.7
78461;SHT31;67755;51.986;5.696;2023-06-14T02:42:16;22.5;37.0
78461;SHT31;67755;51.986;5.696;2023-06-14T02:44:45;22.5;37.2
78461;SHT31;67755;51.986;5.696;2023-06-14T02:47:19;22.5;37.2
78461;SHT31;67755;51.986;5.696;2023-06-14T02:49:48;22.4;37.3
78461;SHT31;67755;51.986;5.696;2023-06-14T02:52:20;22.4;37.0
78461;SHT31;67755;51.986;5.696;2023-06-14T02:54:50;22.4;36.9
78461;SHT31;67755;51.986;5.696;2023-06-14T02:57:19;22.3;37.1
78461;SHT31;67755;51.986;5.696;2023-06-14T02:59:49;22.3;37.7
78461;SHT31;67755;51.986;5.696;2023-06-14T03:02:19;22.3;37.3
78461;SHT31;67755;51.986;5.696;2023-06-14T03:04:48;22.3;37.2
78461;SHT31;67755;51.986;5.696;2023-06-14T03:07:18;22.2;37.5
78461;SHT31;67755;51.986;5.696;2023-06-14T03:09:50;22.2;37.7
78461;SHT31;67755;51.986;5.696;2023-06-14T03:12:20;22.2;37.7
78461;SHT31;67755;51.986;5.696;2023-06-14T03:14:51;22.1;37.8
78461;SHT31;67755;51.986;5.696;2023-06-14T03:17:22;22.1;37.9
78461;SHT31;67755;51.986;5.696;2023-06-14T03:19:57;22.1;38.2
78461;SHT31;67755;51.986;5.696;2023-06-14T03:22:26;22.1;37.9
78461;SHT31;67755;51.986;5.696;2023-06-14T03:24:56;22.0;38.4
78461;SHT31;67755;51.986;5.696;2023-06-14T03:27:28;22.0;38.4
78461;SHT31;67755;51.986;5.696;2023-06-14T03:29:58;22.0;38.2
78461;SHT31;67755;51.986;5.696;2023-06-14T03:32:30;22.0;38.2
78461;SHT31;67755;51.986;5.696;2023-06-14T03:35:00;21.9;38.4
78461;SHT31;67755;51.986;5.696;2023-06-14T03:37:30;21.9;38.6
78461;SHT31;67755;51.986;5.696;2023-06-14T03:40:00;21.9;39.2
78461;SHT31;67755;51.986;5.696;2023-06-14T03:42:33;21.9;39.0
78461;SHT31;67755;51.986;5.696;2023-06-14T03:45:03;21.8;38.6
78461;SHT31;67755;51.986;5.696;2023-06-14T03:47:34;21.8;38.2
78461;SHT31;67755;51.986;5.696;2023-06-14T03:50:04;21.8;38.9
78461;SHT31;67755;51.986;5.696;2023-06-14T03:52:34;21.8;39.2
78461;SHT31;67755;51.986;5.696;2023-06-14T03:55:05;21.7;38.8
78461;SHT31;67755;51.986;5.696;2023-06-14T03:57:35;21.7;38.9
78461;SHT31;67755;51.986;5.696;2023-06-14T04:00:05;21.7;38.5
78461;SHT31;67755;51.986;5.696;2023-06-14T04:02:35;21.7;39.3
78461;SHT31;67755;51.986;5.696;2023-06-14T04:05:06;21.6;38.9
78461;SHT31;67755;51.986;5.696;2023-06-14T04:07:36;21.6;39.6
78461;SHT31;67755;51.986;5.696;2023-06-14T04:10:08;21.6;39.5
78461;SHT31;67755;51.986;5.696;2023-06-14T04:12:38;21.6;39.7
78461;SHT31;67755;51.986;5.696;2023-06-14T04:15:09;21.6;40.0
78461;SHT31;67755;51.986;5.696;2023-06-14T04:17:39;21.5;40.0
78461;SHT31;67755;51.986;5.696;2023-06-14T04:20:09;21.5;39.7
78461;SHT31;67755;51.986;5.696;2023-06-14T04:22:39;21.5;40.0
78461;SHT31;67755;51.986;5.696;2023-06-14T04:25:10;21.5;40.0
78461;SHT31;67755;51.986;5.696;2023-06-14T04:27:40;21.5;39.8
78461;SHT31;67755;51.986;5.696;2023-06-14T04:30:11;21.5;40.3
78461;SHT31;67755;51.986;5.696;2023-06-14T04:32:41;21.5;40.5
78461;SHT31;67755;51.986;5.696;2023-06-14T04:35:11;21.5;40.0
78461;SHT31;67755;51.986;5.696;2023-06-14T04:37:42;21.5;40.4
78461;SHT31;67755;51.986;5.696;2023-06-14T04:40:13;21.5;40.5
78461;SHT31;67755;51.986;5.696;2023-06-14T04:42:42;21.4;40.5
78461;SHT31;67755;51.986;5.696;2023-06-14T04:45:13;21.4;40.5
78461;SHT31;67755;51.986;5.696;2023-06-14T04:47:44;21.4;40.9
78461;SHT31;67755;51.986;5.696;2023-06-14T04:50:15;21.4;40.7
78461;SHT31;67755;51.986;5.696;2023-06-14T04:52:47;21.4;41.4
78461;SHT31;67755;51.986;5.696;2023-06-14T04:55:18;21.4;41.4
78461;SHT31;67755;51.986;5.696;2023-06-14T04:57:48;21.4;41.9
78461;SHT31;67755;51.986;5.696;2023-06-14T05:00:21;21.4;41.2
78461;SHT31;67755;51.986;5.696;2023-06-14T05:02:50;21.4;41.6
78461;SHT31;67755;51.986;5.696;2023-06-14T05:05:20;21.4;41.3
78461;SHT31;67755;51.986;5.696;2023-06-14T05:07:51;21.4;41.3
78461;SHT31;67755;51.986;5.696;2023-06-14T05:10:21;21.4;41.5
78461;SHT31;67755;51.986;5.696;2023-06-14T05:12:51;21.4;41.5
78461;SHT31;67755;51.986;5.696;2023-06-14T05:15:21;21.4;41.2
78461;SHT31;67755;51.986;5.696;2023-06-14T05:17:55;21.4;41.0
78461;SHT31;67755;51.986;5.696;2023-06-14T05:20:25;21.4;41.7
78461;SHT31;67755;51.986;5.696;2023-06-14T05:22:57;21.4;41.8
78461;SHT31;67755;51.986;5.696;2023-06-14T05:25:28;21.4;42.0
78461;SHT31;67755;51.986;5.696;2023-06-14T05:27:58;21.4;40.9
78461;SHT31;67755;51.986;5.696;2023-06-14T05:30:27;21.4;41.7
78461;SHT31;67755;51.986;5.696;2023-06-14T05:32:58;21.4;41.6
78461;SHT31;67755;51.986;5.696;2023-06-14T05:35:27;21.4;42.6
78461;SHT31;67755;51.986;5.696;2023-06-14T05:37:57;21.5;41.8
78461;SHT31;67755;51.986;5.696;2023-06-14T05:40:27;21.5;41.2
78461;SHT31;67755;51.986;5.696;2023-06-14T05:42:57;21.5;42.0
78461;SHT31;67755;51.986;5.696;2023-06-14T05:45:26;21.5;42.2
78461;SHT31;67755;51.986;5.696;2023-06-14T05:47:56;21.5;42.1
78461;SHT31;67755;51.986;5.696;2023-06-14T05:50:27;21.5;41.8
78461;SHT31;67755;51.986;5.696;2023-06-14T05:52:57;21.6;40.4
78461;SHT31;67755;51.986;5.696;2023-06-14T05:55:27;21.6;41.5
78461;SHT31;67755;51.986;5.696;2023-06-14T05:57:56;21.6;40.6
78461;SHT31;67755;51.986;5.696;2023-06-14T06:00:27;21.6;41.2
78461;SHT31;67755;51.986;5.696;2023-06-14T06:02:56;21.7;41.0
78461;SHT31;67755;51.986;5.696;2023-06-14T06:05:26;21.7;41.2
78461;SHT31;67755;51.986;5.696;2023-06-14T06:07:58;21.7;41.8
78461;SHT31;67755;51.986;5.696;2023-06-14T06:10:27;21.8;41.3
78461;SHT31;67755;51.986;5.696;2023-06-14T06:12:57;21.8;42.2
78461;SHT31;67755;51.986;5.696;2023-06-14T06:15:27;21.8;42.0
78461;SHT31;67755;51.986;5.696;2023-06-14T06:17:57;21.9;41.5
78461;SHT31;67755;51.986;5.696;2023-06-14T06:20:26;21.9;41.6
78461;SHT31;67755;51.986;5.696;2023-06-14T06:22:59;22.0;40.0
78461;SHT31;67755;51.986;5.696;2023-06-14T06:25:29;22.0;40.2
78461;SHT31;67755;51.986;5.696;2023-06-14T06:27:59;22.1;41.7
78461;SHT31;67755;51.986;5.696;2023-06-14T06:30:28;22.2;42.1
78461;SHT31;67755;51.986;5.696;2023-06-14T06:32:58;22.3;39.5
78461;SHT31;67755;51.986;5.696;2023-06-14T06:35:28;22.4;40.3
78461;SHT31;67755;51.986;5.696;2023-06-14T06:38:00;22.5;39.2
78461;SHT31;67755;51.986;5.696;2023-06-14T06:40:30;22.6;39.3
78461;SHT31;67755;51.986;5.696;2023-06-14T06:43:01;22.7;38.8
78461;SHT31;67755;51.986;5.696;2023-06-14T06:45:31;22.9;40.1
78461;SHT31;67755;51.986;5.696;2023-06-14T06:48:01;23.0;38.9
78461;SHT31;67755;51.986;5.696;2023-06-14T06:50:31;23.2;38.6
78461;SHT31;67755;51.986;5.696;2023-06-14T06:53:01;23.4;38.0
78461;SHT31;67755;51.986;5.696;2023-06-14T06:55:31;23.5;38.6
78461;SHT31;67755;51.986;5.696;2023-06-14T06:58:00;23.7;37.3
78461;SHT31;67755;51.986;5.696;2023-06-14T07:00:32;23.9;36.7
78461;SHT31;67755;51.986;5.696;2023-06-14T07:03:02;24.0;38.1
78461;SHT31;67755;51.986;5.696;2023-06-14T07:05:32;24.1;36.8
78461;SHT31;67755;51.986;5.696;2023-06-14T07:08:02;24.3;37.6
78461;SHT31;67755;51.986;5.696;2023-06-14T07:10:32;24.4;37.1
78461;SHT31;67755;51.986;5.696;2023-06-14T07:13:02;24.6;36.9
78461;SHT31;67755;51.986;5.696;2023-06-14T07:15:31;24.7;36.2
78461;SHT31;67755;51.986;5.696;2023-06-14T07:18:01;24.8;35.4
78461;SHT31;67755;51.986;5.696;2023-06-14T07:20:30;25.0;35.8
78461;SHT31;67755;51.986;5.696;2023-06-14T07:23:00;25.1;35.9
78461;SHT31;67755;51.986;5.696;2023-06-14T07:25:30;25.2;35.5
78461;SHT31;67755;51.986;5.696;2023-06-14T07:27:59;25.3;34.2
78461;SHT31;67755;51.986;5.696;2023-06-14T07:30:29;25.4;34.5
78461;SHT31;67755;51.986;5.696;2023-06-14T07:32:59;25.5;33.5
78461;SHT31;67755;51.986;5.696;2023-06-14T07:35:29;25.6;33.5
78461;SHT31;67755;51.986;5.696;2023-06-14T07:37:59;25.7;32.5
78461;SHT31;67755;51.986;5.696;2023-06-14T07:40:28;25.8;32.7
78461;SHT31;67755;51.986;5.696;2023-06-14T07:42:58;25.9;33.9
78461;SHT31;67755;51.986;5.696;2023-06-14T07:45:29;26.0;33.7
78461;SHT31;67755;51.986;5.696;2023-06-14T07:47:58;26.1;32.0
78461;SHT31;67755;51.986;5.696;2023-06-14T07:50:28;26.2;32.8
78461;SHT31;67755;51.986;5.696;2023-06-14T07:52:58;26.4;32.9
78461;SHT31;67755;51.986;5.696;2023-06-14T07:55:28;26.5;32.6
78461;SHT31;67755;51.986;5.696;2023-06-14T07:58:00;26.6;32.2
78461;SHT31;67755;51.986;5.696;2023-06-14T08:00:29;26.7;31.7
78461;SHT31;67755;51.986;5.696;2023-06-14T08:03:01;26.8;30.8
78461;SHT31;67755;51.986;5.696;2023-06-14T08:05:33;27.0;31.6
78461;SHT31;67755;51.986;5.696;2023-06-14T08:08:03;27.1;31.1
78461;SHT31;67755;51.986;5.696;2023-06-14T08:10:35;27.2;30.4
78461;SHT31;67755;51.986;5.696;2023-06-14T08:13:05;27.3;30.4
78461;SHT31;67755;51.986;5.696;2023-06-14T08:15:36;27.4;31.9
78461;SHT31;67755;51.986;5.696;2023-06-14T08:18:06;27.5;31.5
78461;SHT31;67755;51.986;5.696;2023-06-14T08:20:35;27.6;30.9
78461;SHT31;67755;51.986;5.696;2023-06-14T08:23:05;27.7;30.5
78461;SHT31;67755;51.986;5.696;2023-06-14T08:25:36;27.8;30.7
78461;SHT31;67755;51.986;5.696;2023-06-14T08:28:06;28.0;29.0
78461;SHT31;67755;51.986;5.696;2023-06-14T08:30:36;28.1;29.5
78461;SHT31;67755;51.986;5.696;2023-06-14T08:33:06;28.1;28.7
78461;SHT31;67755;51.986;5.696;2023-06-14T08:35:36;28.2;30.1
78461;SHT31;67755;51.986;5.696;2023-06-14T08:38:07;28.4;28.1
78461;SHT31;67755;51.986;5.696;2023-06-14T08:40:37;28.5;28.8
78461;SHT31;67755;51.986;5.696;2023-06-14T08:43:07;28.6;27.9
78461;SHT31;67755;51.986;5.696;2023-06-14T08:45:37;28.7;28.4
78461;SHT31;67755;51.986;5.696;2023-06-14T08:48:08;28.7;27.3
78461;SHT31;67755;51.986;5.696;2023-06-14T08:50:40;28.8;29.1
78461;SHT31;67755;51.986;5.696;2023-06-14T08:53:14;28.9;27.4
78461;SHT31;67755;51.986;5.696;2023-06-14T08:55:50;29.0;26.5
78461;SHT31;67755;51.986;5.696;2023-06-14T08:58:22;29.1;26.4
78461;SHT31;67755;51.986;5.696;2023-06-14T09:00:54;29.2;26.8
78461;SHT31;67755;51.986;5.696;2023-06-14T09:03:24;29.3;26.3
78461;SHT31;67755;51.986;5.696;2023-06-14T09:05:58;29.4;26.2
78461;SHT31;67755;51.986;5.696;2023-06-14T09:08:28;29.5;26.7
78461;SHT31;67755;51.986;5.696;2023-06-14T09:11:03;29.5;25.4
78461;SHT31;67755;51.986;5.696;2023-06-14T09:13:34;29.6;23.9
78461;SHT31;67755;51.986;5.696;2023-06-14T09:16:07;29.7;24.0
78461;SHT31;67755;51.986;5.696;2023-06-14T09:18:40;29.7;24.5
78461;SHT31;67755;51.986;5.696;2023-06-14T09:21:12;29.8;25.1
78461;SHT31;67755;51.986;5.696;2023-06-14T09:23:43;29.9;24.5
78461;SHT31;67755;51.986;5.696;2023-06-14T09:26:15;29.9;24.6
78461;SHT31;67755;51.986;5.696;2023-06-14T09:28:47;30.0;24.6
78461;SHT31;67755;51.986;5.696;2023-06-14T09:31:19;30.1;24.8
78461;SHT31;67755;51.986;5.696;2023-06-14T09:33:50;30.2;24.8
78461;SHT31;67755;51.986;5.696;2023-06-14T09:36:24;30.3;24.4
78461;SHT31;67755;51.986;5.696;2023-06-14T09:38:56;30.4;24.9
78461;SHT31;67755;51.986;5.696;2023-06-14T09:41:34;30.4;24.5
78461;SHT31;67755;51.986;5.696;2023-06-14T09:44:05;30.5;23.7
78461;SHT31;67755;51.986;5.696;2023-06-14T09:46:36;30.6;24.5
78461;SHT31;67755;51.986;5.696;2023-06-14T09:49:08;30.7;24.4
78461;SHT31;67755;51.986;5.696;2023-06-14T09:51:42;30.8;23.7
78461;SHT31;67755;51.986;5.696;2023-06-14T09:54:16;30.8;24.6
78461;SHT31;67755;51.986;5.696;2023-06-14T09:56:48;30.9;23.2
78461;SHT31;67755;51.986;5.696;2023-06-14T09:59:22;31.0;23.7
78461;SHT31;67755;51.986;5.696;2023-06-14T10:02:02;31.0;24.0
78461;SHT31;67755;51.986;5.696;2023-06-14T10:04:34;31.1;24.2
78461;SHT31;67755;51.986;5.696;2023-06-14T10:07:04;31.2;23.9
78461;SHT31;67755;51.986;5.696;2023-06-14T10:09:36;31.3;23.7
78461;SHT31;67755;51.986;5.696;2023-06-14T10:12:07;31.4;23.6
78461;SHT31;67755;51.986;5.696;2023-06-14T10:14:38;31.4;25.5
78461;SHT31;67755;51.986;5.696;2023-06-14T10:17:12;31.5;23.3
78461;SHT31;67755;51.986;5.696;2023-06-14T10:19:50;31.5;23.4
78461;SHT31;67755;51.986;5.696;2023-06-14T10:22:25;31.6;23.9
78461;SHT31;67755;51.986;5.696;2023-06-14T10:24:55;31.6;23.5
78461;SHT31;67755;51.986;5.696;2023-06-14T10:27:25;31.7;24.7
78461;SHT31;67755;51.986;5.696;2023-06-14T10:30:07;31.7;23.5
78461;SHT31;67755;51.986;5.696;2023-06-14T10:33:04;31.8;23.6
78461;SHT31;67755;51.986;5.696;2023-06-14T10:35:35;31.9;24.3
78461;SHT31;67755;51.986;5.696;2023-06-14T10:38:12;31.9;23.9
78461;SHT31;67755;51.986;5.696;2023-06-14T10:40:52;31.9;23.3
78461;SHT31;67755;51.986;5.696;2023-06-14T10:43:24;32.0;23.5
78461;SHT31;67755;51.986;5.696;2023-06-14T10:46:18;32.0;23.5
78461;SHT31;67755;51.986;5.696;2023-06-14T10:48:58;32.1;24.3
78461;SHT31;67755;51.986;5.696;2023-06-14T10:51:41;32.1;22.5
78461;SHT31;67755;51.986;5.696;2023-06-14T10:54:14;32.1;22.8
78461;SHT31;67755;51.986;5.696;2023-06-14T10:56:49;32.2;23.2
78461;SHT31;67755;51.986;5.696;2023-06-14T10:59:20;32.2;22.5
78461;SHT31;67755;51.986;5.696;2023-06-14T11:01:58;32.2;23.4
78461;SHT31;67755;51.986;5.696;2023-06-14T11:04:46;32.2;23.1
78461;SHT31;67755;51.986;5.696;2023-06-14T11:07:30;32.3;22.1
78461;SHT31;67755;51.986;5.696;2023-06-14T11:10:12;32.3;23.3
78461;SHT31;67755;51.986;5.696;2023-06-14T11:12:48;32.3;23.3
78461;SHT31;67755;51.986;5.696;2023-06-14T11:15:17;32.3;21.8
78461;SHT31;67755;51.986;5.696;2023-06-14T11:17:55;32.4;22.2
78461;SHT31;67755;51.986;5.696;2023-06-14T11:20:29;32.4;22.1
78461;SHT31;67755;51.986;5.696;2023-06-14T11:23:00;32.4;21.3
78461;SHT31;67755;51.986;5.696;2023-06-14T11:25:31;32.4;21.7
78461;SHT31;67755;51.986;5.696;2023-06-14T11:28:00;32.4;22.3
78461;SHT31;67755;51.986;5.696;2023-06-14T11:30:30;32.5;22.6
78461;SHT31;67755;51.986;5.696;2023-06-14T11:32:59;32.5;21.9
78461;SHT31;67755;51.986;5.696;2023-06-14T11:35:29;32.5;21.8
78461;SHT31;67755;51.986;5.696;2023-06-14T11:38:01;32.5;22.4
78461;SHT31;67755;51.986;5.696;2023-06-14T11:40:32;32.5;22.5
78461;SHT31;67755;51.986;5.696;2023-06-14T11:43:02;32.6;21.6
78461;SHT31;67755;51.986;5.696;2023-06-14T11:45:32;32.6;22.1
78461;SHT31;67755;51.986;5.696;2023-06-14T11:48:03;32.6;21.9
78461;SHT31;67755;51.986;5.696;2023-06-14T11:50:39;32.6;22.1
78461;SHT31;67755;51.986;5.696;2023-06-14T11:53:09;32.7;22.2
78461;SHT31;67755;51.986;5.696;2023-06-14T11:55:39;32.7;21.9
78461;SHT31;67755;51.986;5.696;2023-06-14T11:58:12;32.7;21.5
78461;SHT31;67755;51.986;5.696;2023-06-14T12:00:45;32.7;22.4
78461;SHT31;67755;51.986;5.696;2023-06-14T12:03:24;32.7;22.1
78461;SHT31;67755;51.986;5.696;2023-06-14T12:06:07;32.7;21.4
78461;SHT31;67755;51.986;5.696;2023-06-14T12:08:39;32.7;22.0
78461;SHT31;67755;51.986;5.696;2023-06-14T12:11:11;32.7;21.6
78461;SHT31;67755;51.986;5.696;2023-06-14T12:13:42;32.7;21.9
78461;SHT31;67755;51.986;5.696;2023-06-14T12:16:14;32.7;23.2
78461;SHT31;67755;51.986;5.696;2023-06-14T12:18:44;32.7;22.2
78461;SHT31;67755;51.986;5.696;2023-06-14T12:21:16;32.7;22.6
78461;SHT31;67755;51.986;5.696;2023-06-14T12:23:48;32.7;22.4
78461;SHT31;67755;51.986;5.696;2023-06-14T12:26:21;32.6;23.1
78461;SHT31;67755;51.986;5.696;2023-06-14T12:28:52;32.6;23.0
78461;SHT31;67755;51.986;5.696;2023-06-14T12:31:22;32.5;22.4
78461;SHT31;67755;51.986;5.696;2023-06-14T12:33:52;32.5;22.5
78461;SHT31;67755;51.986;5.696;2023-06-14T12:36:21;32.4;22.9
78461;SHT31;67755;51.986;5.696;2023-06-14T12:38:51;32.3;22.8
78461;SHT31;67755;51.986;5.696;2023-06-14T12:41:21;32.3;22.6
78461;SHT31;67755;51.986;5.696;2023-06-14T12:43:51;32.2;23.0
78461;SHT31;67755;51.986;5.696;2023-06-14T12:46:21;32.2;22.5
78461;SHT31;67755;51.986;5.696;2023-06-14T12:48:51;32.2;22.1
78461;SHT31;67755;51.986;5.696;2023-06-14T12:51:21;32.1;22.8
78461;SHT31;67755;51.986;5.696;2023-06-14T12:53:51;32.1;22.6
78461;SHT31;67755;51.986;5.696;2023-06-14T12:56:20;32.1;22.9
78461;SHT31;67755;51.986;5.696;2023-06-14T12:58:50;32.1;21.8
78461;SHT31;67755;51.986;5.696;2023-06-14T13:01:20;32.1;21.9
78461;SHT31;67755;51.986;5.696;2023-06-14T13:03:52;32.0;22.3
78461;SHT31;67755;51.986;5.696;2023-06-14T13:06:23;32.0;22.5
78461;SHT31;67755;51.986;5.696;2023-06-14T13:08:52;31.9;22.6
78461;SHT31;67755;51.986;5.696;2023-06-14T13:11:25;31.9;22.4
78461;SHT31;67755;51.986;5.696;2023-06-14T13:13:54;31.9;22.9
78461;SHT31;67755;51.986;5.696;2023-06-14T13:16:24;31.9;23.7
78461;SHT31;67755;51.986;5.696;2023-06-14T13:18:54;31.8;23.4
78461;SHT31;67755;51.986;5.696;2023-06-14T13:21:23;31.8;23.2
78461;SHT31;67755;51.986;5.696;2023-06-14T13:23:53;31.8;23.8
78461;SHT31;67755;51.986;5.696;2023-06-14T13:26:23;31.8;23.9
78461;SHT31;67755;51.986;5.696;2023-06-14T13:28:54;31.7;23.9
78461;SHT31;67755;51.986;5.696;2023-06-14T13:31:23;31.7;23.3
78461;SHT31;67755;51.986;5.696;2023-06-14T13:33:53;31.7;23.5
78461;SHT31;67755;51.986;5.696;2023-06-14T13:36:23;31.7;24.5
78461;SHT31;67755;51.986;5.696;2023-06-14T13:38:53;31.7;23.1
78461;SHT31;67755;51.986;5.696;2023-06-14T13:41:22;31.7;23.8
78461;SHT31;67755;51.986;5.696;2023-06-14T13:43:54;31.7;24.0
78461;SHT31;67755;51.986;5.696;2023-06-14T13:46:24;31.8;23.6
78461;SHT31;67755;51.986;5.696;2023-06-14T13:48:53;31.8;23.8
78461;SHT31;67755;51.986;5.696;2023-06-14T13:51:23;31.8;23.1
78461;SHT31;67755;51.986;5.696;2023-06-14T13:53:54;31.8;23.3
78461;SHT31;67755;51.986;5.696;2023-06-14T13:56:23;31.8;22.7
78461;SHT31;67755;51.986;5.696;2023-06-14T13:58:53;31.8;22.6
78461;SHT31;67755;51.986;5.696;2023-06-14T14:01:25;31.8;22.7
78461;SHT31;67755;51.986;5.696;2023-06-14T14:03:58;31.8;23.0
78461;SHT31;67755;51.986;5.696;2023-06-14T14:06:28;31.8;22.7
78461;SHT31;67755;51.986;5.696;2023-06-14T14:08:58;31.8;23.1
78461;SHT31;67755;51.986;5.696;2023-06-14T14:11:28;31.8;22.9
78461;SHT31;67755;51.986;5.696;2023-06-14T14:14:00;31.8;23.1
78461;SHT31;67755;51.986;5.696;2023-06-14T14:16:31;31.8;23.1
78461;SHT31;67755;51.986;5.696;2023-06-14T14:19:02;31.8;23.7
78461;SHT31;67755;51.986;5.696;2023-06-14T14:21:33;31.9;23.1
78461;SHT31;67755;51.986;5.696;2023-06-14T14:24:03;31.9;23.1
78461;SHT31;67755;51.986;5.696;2023-06-14T14:26:32;31.9;23.0
78461;SHT31;67755;51.986;5.696;2023-06-14T14:29:02;31.9;23.8
78461;SHT31;67755;51.986;5.696;2023-06-14T14:31:32;31.9;23.1
78461;SHT31;67755;51.986;5.696;2023-06-14T14:34:02;31.9;23.3
78461;SHT31;67755;51.986;5.696;2023-06-14T14:36:32;31.9;23.0
78461;SHT31;67755;51.986;5.696;2023-06-14T14:39:05;31.9;23.4
78461;SHT31;67755;51.986;5.696;2023-06-14T14:41:36;31.9;23.2
78461;SHT31;67755;51.986;5.696;2023-06-14T14:44:07;31.9;22.9
78461;SHT31;67755;51.986;5.696;2023-06-14T14:46:37;31.9;23.6
78461;SHT31;67755;51.986;5.696;2023-06-14T14:49:07;31.9;23.5
78461;SHT31;67755;51.986;5.696;2023-06-14T14:51:37;31.9;23.1
78461;SHT31;67755;51.986;5.696;2023-06-14T14:54:07;31.9;23.1
78461;SHT31;67755;51.986;5.696;2023-06-14T14:56:37;31.9;23.0
78461;SHT31;67755;51.986;5.696;2023-06-14T14:59:07;31.8;22.8
78461;SHT31;67755;51.986;5.696;2023-06-14T15:01:38;31.8;23.2
78461;SHT31;67755;51.986;5.696;2023-06-14T15:04:08;31.8;23.0
78461;SHT31;67755;51.986;5.696;2023-06-14T15:06:38;31.8;23.0
78461;SHT31;67755;51.986;5.696;2023-06-14T15:09:08;31.7;23.6
78461;SHT31;67755;51.986;5.696;2023-06-14T15:11:37;31.7;22.6
78461;SHT31;67755;51.986;5.696;2023-06-14T15:14:07;31.7;22.6
78461;SHT31;67755;51.986;5.696;2023-06-14T15:16:37;31.7;22.4
78461;SHT31;67755;51.986;5.696;2023-06-14T15:19:07;31.7;23.4
78461;SHT31;67755;51.986;5.696;2023-06-14T15:21:37;31.7;22.6
78461;SHT31;67755;51.986;5.696;2023-06-14T15:24:07;31.7;23.2
78461;SHT31;67755;51.986;5.696;2023-06-14T15:26:37;31.7;23.0
78461;SHT31;67755;51.986;5.696;2023-06-14T15:29:07;31.7;23.0
78461;SHT31;67755;51.986;5.696;2023-06-14T15:31:36;31.7;22.9
78461;SHT31;67755;51.986;5.696;2023-06-14T15:34:06;31.7;23.2
78461;SHT31;67755;51.986;5.696;2023-06-14T15:36:35;31.6;23.0
78461;SHT31;67755;51.986;5.696;2023-06-14T15:39:05;31.6;22.8
78461;SHT31;67755;51.986;5.696;2023-06-14T15:41:34;31.6;22.7
78461;SHT31;67755;51.986;5.696;2023-06-14T15:44:04;31.6;23.2
78461;SHT31;67755;51.986;5.696;2023-06-14T15:46:34;31.5;23.1
78461;SHT31;67755;51.986;5.696;2023-06-14T15:49:08;31.5;22.8
78461;SHT31;67755;51.986;5.696;2023-06-14T15:51:41;31.5;22.5
78461;SHT31;67755;51.986;5.696;2023-06-14T15:54:12;31.4;23.2
78461;SHT31;67755;51.986;5.696;2023-06-14T15:56:42;31.4;23.1
78461;SHT31;67755;51.986;5.696;2023-06-14T15:59:11;31.3;23.0
78461;SHT31;67755;51.986;5.696;2023-06-14T16:01:41;31.3;23.6
78461;SHT31;67755;51.986;5.696;2023-06-14T16:04:10;31.2;23.7
78461;SHT31;67755;51.986;5.696;2023-06-14T16:06:40;31.2;24.5
78461;SHT31;67755;51.986;5.696;2023-06-14T16:09:10;31.2;24.5
78461;SHT31;67755;51.986;5.696;2023-06-14T16:11:40;31.1;25.4
78461;SHT31;67755;51.986;5.696;2023-06-14T16:14:11;31.1;24.8
78461;SHT31;67755;51.986;5.696;2023-06-14T16:16:41;31.1;25.0
78461;SHT31;67755;51.986;5.696;2023-06-14T16:19:10;31.0;24.3
78461;SHT31;67755;51.986;5.696;2023-06-14T16:21:40;31.0;24.1
78461;SHT31;67755;51.986;5.696;2023-06-14T16:24:10;31.0;24.2
78461;SHT31;67755;51.986;5.696;2023-06-14T16:26:41;30.9;24.1